States of Jersey

Home Log in

Channel Islands Terminal Aerodrome Forecasts (TAFs) issued Saturday, 27 May 2017

Jersey Airport - EGJJ

270200Z 2703/2712 17012KT 9999 FEW030CB PROB30 TEMPO 2703/2705 5000 TSRA BKN030CB BECMG 2703/2705 23015KT BKN010 PROB30 TEMPO 2707/2712 0300 FG BKN000=

Guernsey Airport - EGJB

270200Z 2703/2712 17012KT 9999 FEW030CB PROB30 TEMPO 2703/2705 5000 TSRA BKN030CB BECMG 2703/2705 23015KT BKN010 PROB30 TEMPO 2705/2712 0300 FG BKN000=

Alderney Airport - EGJA

270200Z 2703/2712 Nil